Time;durP1;ratioP1;P1;durP2;ratioP2;P2;SDS_P1;SDS_P2;PMS_P1;PMS_P2;Temp;Humidity;BMP_temperature;BMP_pressure;BME280_temperature;BME280_humidity;BME280_pressure;Samples;Min_cycle;Max_cycle;Signal;HPM_P1;HPM_P2
2022/05/11 00:00:33;;;;;;;22.30;5.15;;;11.70;96.90;;;;;;4905151;29;20043;-75
2022/05/11 00:02:58;;;;;;;20.02;3.95;;;11.70;97.20;;;;;;4904809;29;20028;-75
2022/05/11 00:05:24;;;;;;;25.33;5.43;;;11.60;97.00;;;;;;4905942;29;20754;-74
2022/05/11 00:07:50;;;;;;;27.25;4.50;;;11.60;97.20;;;;;;4903267;29;20075;-75
2022/05/11 00:10:16;;;;;;;24.33;4.32;;;11.50;97.50;;;;;;4904540;29;20105;-74
2022/05/11 00:12:44;;;;;;;20.58;4.82;;;11.50;97.60;;;;;;4905277;29;20036;-74
2022/05/11 00:15:15;;;;;;;20.05;4.45;;;11.30;97.70;;;;;;4902617;29;20377;-75
2022/05/11 00:17:41;;;;;;;31.17;4.80;;;11.30;98.00;;;;;;4898972;29;20020;-76
2022/05/11 00:20:08;;;;;;;24.23;4.70;;;11.30;98.10;;;;;;4903992;29;20032;-75
2022/05/11 00:22:34;;;;;;;25.20;4.70;;;11.30;98.30;;;;;;4905594;29;20044;-74
2022/05/11 00:25:00;;;;;;;26.50;4.90;;;11.30;98.30;;;;;;4904657;29;20103;-75
2022/05/11 00:27:26;;;;;;;30.85;5.28;;;11.30;98.40;;;;;;4903127;29;20036;-76
2022/05/11 00:29:52;;;;;;;26.65;4.97;;;11.30;98.50;;;;;;4905676;29;20492;-76
2022/05/11 00:32:18;;;;;;;22.60;4.63;;;11.30;98.40;;;;;;4901260;29;20043;-75
2022/05/11 00:34:44;;;;;;;26.25;5.97;;;11.30;98.40;;;;;;4910940;29;20148;-75
2022/05/11 00:37:10;;;;;;;28.90;5.72;;;11.40;98.50;;;;;;4912150;29;20476;-77
2022/05/11 00:39:36;;;;;;;19.83;4.60;;;11.50;98.40;;;;;;4911306;29;20048;-73
2022/05/11 00:42:05;;;;;;;26.80;5.35;;;11.50;98.20;;;;;;4910670;29;20947;-74
2022/05/11 00:44:31;;;;;;;27.85;5.15;;;11.60;98.10;;;;;;4911010;29;20518;-75
2022/05/11 00:47:03;;;;;;;19.05;3.97;;;11.70;98.00;;;;;;4910670;29;20043;-75
2022/05/11 00:49:36;;;;;;;31.00;5.00;;;11.80;97.70;;;;;;4905264;29;20052;-74
2022/05/11 00:52:05;;;;;;;24.25;4.38;;;11.90;97.20;;;;;;4908377;29;20032;-76
2022/05/11 00:54:36;;;;;;;21.52;3.83;;;11.90;97.00;;;;;;4909542;29;20068;-75
2022/05/11 00:57:04;;;;;;;19.52;3.78;;;11.90;96.80;;;;;;4910036;29;20040;-73
2022/05/11 00:59:36;;;;;;;22.98;4.65;;;11.80;96.70;;;;;;4909681;29;20036;-74
2022/05/11 01:02:04;;;;;;;25.95;4.28;;;11.80;96.60;;;;;;4910270;29;20187;-74
2022/05/11 01:04:37;;;;;;;21.13;3.72;;;11.70;96.60;;;;;;4908108;29;20503;-75
2022/05/11 01:07:04;;;;;;;23.45;3.63;;;11.70;96.60;;;;;;4904413;29;20155;-74
2022/05/11 01:09:30;;;;;;;21.02;4.28;;;11.70;96.70;;;;;;4910913;29;20111;-74
2022/05/11 01:11:59;;;;;;;21.25;3.22;;;11.70;96.60;;;;;;4911041;29;20488;-75
2022/05/11 01:14:29;;;;;;;17.13;3.72;;;11.80;96.50;;;;;;4906392;29;20047;-76
2022/05/11 01:16:56;;;;;;;22.88;4.65;;;11.70;96.60;;;;;;4912010;29;20035;-76
2022/05/11 01:19:38;;;;;;;16.45;4.10;;;11.70;96.50;;;;;;4910550;29;20039;-75
2022/05/11 01:22:18;;;;;;;21.02;3.75;;;11.70;96.50;;;;;;4908693;29;20119;-75
2022/05/11 01:24:46;;;;;;;20.35;4.28;;;11.70;96.60;;;;;;4905576;29;20048;-76
2022/05/11 01:27:40;;;;;;;21.67;3.78;;;11.60;96.60;;;;;;4910997;29;20051;-74
2022/05/11 01:30:11;;;;;;;18.17;3.65;;;11.60;96.70;;;;;;4908713;29;20036;-74
2022/05/11 01:32:38;;;;;;;18.83;4.78;;;11.50;96.80;;;;;;4898171;29;20028;-75
2022/05/11 01:35:22;;;;;;;25.75;3.80;;;11.40;97.00;;;;;;4910700;29;20211;-74
2022/05/11 01:38:32;;;;;;;16.92;3.88;;;11.40;97.10;;;;;;4909258;29;20036;-74
2022/05/11 01:40:58;;;;;;;22.25;3.83;;;11.40;97.20;;;;;;4900509;29;20564;-75
2022/05/11 01:43:30;;;;;;;20.50;4.57;;;11.30;97.30;;;;;;4892936;29;20044;-75
2022/05/11 01:45:55;;;;;;;;;;;11.30;97.30;;;;;;4911828;29;20036;-72
2022/05/11 01:48:22;;;;;;;18.88;4.55;;;11.20;97.30;;;;;;4927341;29;19915;-75
2022/05/11 01:50:47;;;;;;;20.63;4.38;;;11.20;97.30;;;;;;4908430;29;20064;-75
2022/05/11 01:53:13;;;;;;;20.45;3.60;;;11.20;97.30;;;;;;4894604;29;20056;-74
2022/05/11 01:55:39;;;;;;;22.55;4.20;;;11.20;97.40;;;;;;4907395;29;20036;-74
2022/05/11 01:58:11;;;;;;;21.30;4.03;;;11.10;97.40;;;;;;4904548;29;20572;-76
2022/05/11 02:00:38;;;;;;;24.58;3.92;;;11.10;97.50;;;;;;4905356;29;20071;-74
2022/05/11 02:03:04;;;;;;;19.73;3.50;;;11.10;97.50;;;;;;4906169;29;20119;-75
2022/05/11 02:08:15;;;;;;;15.55;3.28;;;11.10;97.30;;;;;;4906585;29;20167;-75
2022/05/11 02:10:41;;;;;;;26.38;4.07;;;11.00;97.50;;;;;;4907598;29;20111;-75
2022/05/11 02:13:07;;;;;;;21.63;4.00;;;11.00;97.60;;;;;;4906041;29;20484;-74
2022/05/11 02:15:33;;;;;;;16.75;3.90;;;10.90;97.70;;;;;;4898412;29;20050;-74
2022/05/11 02:17:58;;;;;;;19.67;4.20;;;10.80;97.90;;;;;;4907184;29;20032;-75
2022/05/11 02:20:24;;;;;;;17.40;4.70;;;10.90;98.10;;;;;;4906885;29;20036;-75
2022/05/11 02:22:51;;;;;;;19.67;4.15;;;10.80;98.10;;;;;;4906363;29;20043;-75
2022/05/11 02:25:18;;;;;;;14.23;4.03;;;10.80;98.10;;;;;;4906417;29;20043;-74
2022/05/11 02:27:45;;;;;;;21.42;4.93;;;10.80;98.30;;;;;;4903531;29;20043;-76
2022/05/11 02:30:15;;;;;;;23.35;4.55;;;10.80;98.30;;;;;;4900283;29;20119;-75
2022/05/11 02:32:41;;;;;;;22.63;4.85;;;10.70;98.30;;;;;;4894097;29;20472;-75
2022/05/11 02:35:13;;;;;;;16.98;3.88;;;10.70;98.40;;;;;;4905940;29;20051;-76
2022/05/11 02:37:39;;;;;;;25.65;5.00;;;10.60;98.60;;;;;;4907060;29;20036;-75
2022/05/11 02:40:06;;;;;;;32.92;6.10;;;10.60;98.70;;;;;;4903729;29;20036;-75
2022/05/11 02:42:32;;;;;;;19.73;4.80;;;10.60;98.80;;;;;;4908347;29;20041;-75
2022/05/11 02:44:57;;;;;;;23.67;5.05;;;10.60;98.90;;;;;;4908398;29;20028;-74
2022/05/11 02:47:23;;;;;;;26.52;4.65;;;10.50;98.80;;;;;;4905305;29;20090;-75
2022/05/11 02:49:49;;;;;;;21.10;4.95;;;10.50;98.90;;;;;;4902444;29;20043;-75
2022/05/11 02:52:15;;;;;;;17.33;4.18;;;10.60;98.90;;;;;;4907562;29;20397;-74
2022/05/11 02:54:41;;;;;;;23.25;5.25;;;10.60;98.80;;;;;;4905430;29;20028;-75
2022/05/11 02:57:07;;;;;;;19.10;5.78;;;10.60;98.80;;;;;;4908029;29;20310;-75
2022/05/11 02:59:32;;;;;;;29.58;5.15;;;10.80;98.90;;;;;;4907337;29;20447;-75
2022/05/11 03:01:58;;;;;;;26.70;4.97;;;10.90;98.80;;;;;;4907132;29;20032;-75
2022/05/11 03:04:25;;;;;;;17.83;3.97;;;11.00;98.50;;;;;;4917464;29;20118;-75
2022/05/11 03:06:51;;;;;;;22.08;4.25;;;11.20;98.10;;;;;;4897334;29;20052;-74
2022/05/11 03:09:17;;;;;;;17.17;5.50;;;11.20;97.70;;;;;;4906897;29;20476;-74
2022/05/11 03:11:45;;;;;;;19.02;4.78;;;11.20;97.50;;;;;;4907750;29;20028;-75
2022/05/11 03:14:11;;;;;;;25.60;4.60;;;11.20;97.50;;;;;;4898732;29;20488;-75
2022/05/11 03:16:38;;;;;;;14.15;3.65;;;11.20;97.40;;;;;;4893485;29;20066;-74
2022/05/11 03:19:05;;;;;;;18.60;5.00;;;11.20;97.30;;;;;;4904774;29;20514;-75
2022/05/11 03:21:32;;;;;;;19.92;4.47;;;11.10;97.30;;;;;;4901150;29;20099;-74
2022/05/11 03:23:58;;;;;;;18.33;4.28;;;11.10;97.40;;;;;;4896407;29;20035;-74
2022/05/11 03:26:24;;;;;;;21.98;4.35;;;11.10;97.50;;;;;;4907097;29;20044;-75
2022/05/11 03:28:49;;;;;;;20.38;6.57;;;11.20;97.50;;;;;;4906691;29;20112;-75
2022/05/11 03:31:15;;;;;;;17.73;4.35;;;11.20;97.40;;;;;;4904974;29;20043;-73
2022/05/11 03:36:25;;;;;;;20.30;4.47;;;11.10;97.60;;;;;;4900811;29;20042;-74
2022/05/11 03:38:51;;;;;;;23.40;5.38;;;11.10;97.60;;;;;;4905773;29;20035;-75
2022/05/11 03:41:17;;;;;;;21.85;5.13;;;11.10;97.70;;;;;;4902383;29;20482;-74
2022/05/11 03:43:44;;;;;;;22.45;5.10;;;11.10;97.60;;;;;;4905704;29;20088;-75
2022/05/11 03:46:09;;;;;;;16.52;4.45;;;11.30;97.60;;;;;;4905642;29;20111;-74
2022/05/11 03:48:37;;;;;;;25.88;6.30;;;11.40;97.30;;;;;;4906117;29;20175;-75
2022/05/11 03:51:04;;;;;;;23.10;4.70;;;11.40;97.20;;;;;;4903702;29;20035;-74
2022/05/11 03:53:31;;;;;;;21.15;5.15;;;11.50;97.20;;;;;;4905241;29;20040;-74
2022/05/11 03:55:57;;;;;;;17.25;5.30;;;11.40;97.00;;;;;;4894263;29;20035;-73
2022/05/11 03:58:22;;;;;;;17.10;4.97;;;11.40;97.20;;;;;;4894663;29;20055;-75
2022/05/11 04:00:48;;;;;;;21.10;4.80;;;11.40;97.00;;;;;;4903968;29;20074;-75
2022/05/11 04:03:14;;;;;;;16.13;4.38;;;11.30;96.90;;;;;;4903994;29;20460;-74
2022/05/11 04:05:39;;;;;;;22.08;4.75;;;11.40;97.00;;;;;;4903165;29;21422;-74
2022/05/11 04:08:05;;;;;;;21.92;5.20;;;11.50;97.00;;;;;;4904264;29;20074;-75
2022/05/11 04:10:31;;;;;;;16.55;5.10;;;11.50;97.00;;;;;;4904464;29;20047;-75
2022/05/11 04:12:58;;;;;;;13.52;4.68;;;11.60;96.90;;;;;;4903793;29;20032;-74
2022/05/11 04:15:24;;;;;;;16.48;4.43;;;11.70;96.60;;;;;;4899240;29;20185;-74
2022/05/11 04:17:49;;;;;;;17.65;4.78;;;11.70;96.50;;;;;;4905176;29;20032;-74
2022/05/11 04:20:17;;;;;;;20.33;4.10;;;11.80;96.50;;;;;;4902058;29;20028;-74
2022/05/11 04:22:43;;;;;;;18.25;4.07;;;12.00;95.60;;;;;;4906179;29;20070;-73
2022/05/11 04:25:14;;;;;;;21.08;4.78;;;12.00;95.60;;;;;;4903294;29;20071;-74
2022/05/11 04:27:40;;;;;;;20.67;4.43;;;12.10;95.40;;;;;;4904990;29;20032;-73
2022/05/11 04:30:07;;;;;;;13.98;4.35;;;12.10;95.50;;;;;;4903357;29;20627;-73
2022/05/11 04:32:33;;;;;;;21.70;4.97;;;12.20;95.40;;;;;;4905532;29;20064;-74
2022/05/11 04:34:59;;;;;;;21.75;4.38;;;12.20;95.50;;;;;;4901809;29;20104;-73
2022/05/11 04:37:25;;;;;;;18.83;4.93;;;12.30;95.30;;;;;;4904993;29;20503;-73
2022/05/11 04:39:51;;;;;;;19.80;5.82;;;12.20;95.30;;;;;;4904995;29;20040;-74
2022/05/11 04:42:16;;;;;;;17.75;4.60;;;12.30;95.30;;;;;;4919696;29;20032;-73
2022/05/11 04:44:42;;;;;;;14.95;4.70;;;12.40;94.90;;;;;;4904663;29;20032;-74
2022/05/11 04:47:10;;;;;;;18.88;4.68;;;12.40;95.00;;;;;;4903367;29;20032;-74
2022/05/11 04:49:36;;;;;;;15.10;4.63;;;12.40;94.70;;;;;;4891238;29;20040;-74
2022/05/11 04:52:07;;;;;;;15.65;5.15;;;12.50;94.90;;;;;;4918203;29;20392;-73
2022/05/11 04:54:37;;;;;;;16.02;4.97;;;12.50;94.80;;;;;;4901916;29;20371;-74
2022/05/11 04:57:03;;;;;;;20.40;5.32;;;12.50;94.60;;;;;;4904923;29;20067;-74
2022/05/11 04:59:29;;;;;;;25.25;5.47;;;12.60;94.40;;;;;;4904579;29;20044;-74
2022/05/11 05:01:55;;;;;;;13.38;4.53;;;12.60;94.50;;;;;;4902501;29;20395;-74
2022/05/11 05:04:20;;;;;;;15.88;5.10;;;12.70;94.20;;;;;;4903375;29;20575;-74
2022/05/11 05:06:46;;;;;;;18.45;5.00;;;12.70;94.70;;;;;;4902649;29;20680;-75
2022/05/11 05:09:12;;;;;;;14.40;4.53;;;12.70;94.20;;;;;;4897623;29;20606;-74
2022/05/11 05:11:37;;;;;;;14.45;5.28;;;12.80;93.90;;;;;;4904482;29;20075;-75
2022/05/11 05:14:05;;;;;;;16.65;5.82;;;12.90;94.10;;;;;;4902635;29;20036;-75
2022/05/11 05:16:32;;;;;;;25.40;4.82;;;12.90;94.00;;;;;;4904147;29;20028;-75
2022/05/11 05:18:57;;;;;;;15.88;4.50;;;12.90;93.50;;;;;;4905728;29;20420;-73
2022/05/11 05:21:23;;;;;;;12.57;3.90;;;12.90;93.60;;;;;;4903323;29;20029;-74
2022/05/11 05:23:49;;;;;;;20.05;4.53;;;13.00;93.10;;;;;;4906340;29;20036;-73
2022/05/11 05:26:15;;;;;;;17.80;4.10;;;13.00;93.10;;;;;;4906270;29;20040;-74
2022/05/11 05:31:28;;;;;;;16.15;4.32;;;13.20;92.10;;;;;;4897988;29;20431;-74
2022/05/11 05:33:59;;;;;;;13.85;3.38;;;13.30;92.10;;;;;;4906200;29;20035;-73
2022/05/11 05:36:27;;;;;;;19.58;4.20;;;13.40;91.30;;;;;;4903610;29;20392;-75
2022/05/11 05:38:53;;;;;;;9.18;2.60;;;13.50;91.20;;;;;;4902086;29;20533;-74
2022/05/11 05:41:19;;;;;;;15.13;3.63;;;13.50;90.70;;;;;;4904763;29;20526;-75
2022/05/11 05:43:44;;;;;;;17.88;4.38;;;13.40;90.90;;;;;;4907236;29;20036;-74
2022/05/11 05:46:10;;;;;;;15.07;4.57;;;13.40;91.30;;;;;;4907933;29;20051;-74
2022/05/11 05:48:35;;;;;;;12.40;2.67;;;13.50;90.80;;;;;;4907548;29;20050;-73
2022/05/11 05:51:03;;;;;;;20.42;3.80;;;13.50;90.80;;;;;;4905445;29;20044;-73
2022/05/11 05:53:29;;;;;;;19.42;3.58;;;13.60;90.10;;;;;;4901956;29;20063;-74
2022/05/11 05:55:55;;;;;;;13.50;3.83;;;13.70;90.10;;;;;;4907913;29;20508;-73
2022/05/11 05:58:20;;;;;;;16.00;3.65;;;13.80;89.90;;;;;;4907303;29;20099;-73
2022/05/11 06:00:46;;;;;;;22.38;4.65;;;13.80;90.00;;;;;;4904312;29;20036;-72
2022/05/11 06:03:22;;;;;;;19.10;3.95;;;13.70;90.70;;;;;;4906269;29;20067;-73
2022/05/11 06:05:47;;;;;;;17.38;4.20;;;13.70;90.70;;;;;;4907673;29;20123;-73
2022/05/11 06:08:15;;;;;;;19.55;4.80;;;13.70;91.30;;;;;;4907178;29;20155;-74
2022/05/11 06:10:41;;;;;;;18.23;5.38;;;13.60;91.60;;;;;;4906179;29;20571;-74
2022/05/11 06:13:07;;;;;;;20.92;6.20;;;13.60;91.60;;;;;;4896651;29;20064;-73
2022/05/11 06:15:35;;;;;;;15.57;5.10;;;13.60;92.20;;;;;;4902862;29;20612;-73
2022/05/11 06:18:01;;;;;;;24.13;5.32;;;13.70;91.90;;;;;;4906709;29;20040;-73
2022/05/11 06:20:27;;;;;;;18.38;4.72;;;13.70;91.50;;;;;;4904977;29;20028;-73
2022/05/11 06:22:53;;;;;;;19.92;5.00;;;13.90;91.50;;;;;;4905388;29;20044;-72
2022/05/11 06:25:20;;;;;;;20.23;5.55;;;14.30;91.30;;;;;;4905004;29;20138;-73
2022/05/11 06:27:46;;;;;;;17.65;4.13;;;14.40;90.30;;;;;;4906250;29;20066;-71
2022/05/11 06:30:13;;;;;;;19.95;3.72;;;14.60;89.90;;;;;;4895702;29;20200;-73
2022/05/11 06:32:38;;;;;;;17.33;4.13;;;14.70;87.80;;;;;;4903492;29;20115;-73
2022/05/11 06:35:04;;;;;;;13.77;3.75;;;14.80;88.50;;;;;;4901930;29;20480;-73
2022/05/11 06:37:30;;;;;;;17.88;4.00;;;15.00;88.00;;;;;;4901786;29;20031;-73
2022/05/11 06:39:56;;;;;;;14.50;3.65;;;15.30;85.70;;;;;;4916425;29;20044;-73
2022/05/11 06:42:22;;;;;;;17.58;4.18;;;15.40;85.10;;;;;;4905624;29;20123;-74
2022/05/11 06:44:49;;;;;;;20.42;3.67;;;15.70;86.40;;;;;;4915166;29;20115;-72
2022/05/11 06:47:15;;;;;;;20.90;3.25;;;16.20;83.10;;;;;;4905048;29;20028;-71
2022/05/11 06:49:41;;;;;;;18.33;2.28;;;16.30;80.70;;;;;;4904047;29;20036;-71
2022/05/11 06:52:06;;;;;;;17.08;2.65;;;16.20;79.00;;;;;;4898122;29;20036;-71
2022/05/11 07:00:00;;;;;;;11.95;2.30;;;16.00;79.60;;;;;;4907063;29;20507;-72
2022/05/11 07:02:26;;;;;;;14.43;2.70;;;15.80;80.90;;;;;;4896806;29;20024;-76
2022/05/11 07:04:52;;;;;;;17.73;3.53;;;15.80;81.00;;;;;;4897974;29;20111;-73
2022/05/11 07:07:18;;;;;;;12.88;2.80;;;15.70;80.90;;;;;;4890480;29;20403;-75
2022/05/11 07:09:44;;;;;;;14.85;3.13;;;15.60;81.60;;;;;;4903698;29;20059;-74
2022/05/11 07:12:32;;;;;;;12.13;2.15;;;15.90;80.50;;;;;;4889942;29;20047;-75
2022/05/11 07:14:59;;;;;;;12.60;2.92;;;15.80;80.10;;;;;;4889425;29;20055;-75
2022/05/11 07:17:34;;;;;;;16.02;2.95;;;15.80;80.10;;;;;;4900857;29;20123;-75
2022/05/11 07:20:29;;;;;;;16.63;2.67;;;15.60;80.60;;;;;;4903622;29;20036;-75
2022/05/11 07:22:55;;;;;;;18.73;3.10;;;15.40;81.90;;;;;;4903513;29;20047;-74
2022/05/11 07:25:24;;;;;;;13.13;2.88;;;15.40;82.80;;;;;;4906480;29;20032;-75
2022/05/11 07:27:51;;;;;;;17.10;3.30;;;15.80;81.70;;;;;;4919321;29;20028;-71
2022/05/11 07:30:26;;;;;;;14.88;2.58;;;16.00;79.90;;;;;;4896996;29;20047;-73
2022/05/11 07:32:52;;;;;;;21.35;3.03;;;16.00;78.80;;;;;;4890119;29;20165;-71
2022/05/11 07:35:18;;;;;;;17.65;3.03;;;16.00;81.40;;;;;;4891823;29;20036;-73
2022/05/11 07:37:47;;;;;;;10.35;3.40;;;15.90;77.00;;;;;;4892291;29;20441;-72
2022/05/11 07:40:16;;;;;;;15.20;2.70;;;16.10;78.10;;;;;;4892241;29;20183;-73
2022/05/11 07:42:43;;;;;;;7.95;2.55;;;16.40;77.80;;;;;;4887344;29;20028;-72
2022/05/11 07:45:10;;;;;;;16.80;3.00;;;16.40;77.40;;;;;;4890974;29;20027;-72
2022/05/11 07:47:36;;;;;;;13.25;3.63;;;16.80;74.30;;;;;;4895169;29;20028;-72
2022/05/11 07:50:02;;;;;;;15.80;2.38;;;17.10;75.20;;;;;;4892152;29;20428;-73
2022/05/11 07:52:28;;;;;;;14.30;3.10;;;17.30;74.00;;;;;;4894483;29;20188;-72
2022/05/11 07:54:54;;;;;;;11.88;2.80;;;17.40;72.70;;;;;;4898993;29;20040;-73
2022/05/11 08:00:06;;;;;;;16.83;2.53;;;16.90;76.10;;;;;;4899675;29;20060;-73
2022/05/11 08:02:39;;;;;;;10.30;2.47;;;16.60;76.50;;;;;;4899533;29;20056;-72
2022/05/11 08:05:08;;;;;;;15.07;2.42;;;16.30;76.60;;;;;;4896811;29;20047;-72
2022/05/11 08:07:44;;;;;;;17.80;4.45;;;16.50;76.40;;;;;;4890141;29;20063;-73
2022/05/11 08:10:13;;;;;;;14.52;3.20;;;16.90;76.70;;;;;;4892222;29;20048;-73
2022/05/11 08:12:39;;;;;;;14.50;3.97;;;18.80;71.70;;;;;;4893767;29;20024;-74
2022/05/11 08:15:06;;;;;;;14.50;2.35;;;18.60;68.90;;;;;;4894409;29;20039;-72
2022/05/11 08:17:35;;;;;;;11.55;1.98;;;19.50;70.40;;;;;;4893620;29;20063;-71
2022/05/11 08:20:07;;;;;;;12.85;2.00;;;20.70;61.80;;;;;;4892340;29;20040;-72
2022/05/11 08:22:33;;;;;;;12.30;2.47;;;23.60;58.20;;;;;;4898907;29;20038;-71
2022/05/11 08:24:58;;;;;;;6.25;1.55;;;27.20;49.10;;;;;;4891175;29;20467;-73
2022/05/11 08:27:27;;;;;;;9.52;2.03;;;26.90;46.90;;;;;;4891256;29;20306;-76
2022/05/11 08:35:21;;;;;;;5.20;1.38;;;29.80;39.60;;;;;;4885697;29;20051;-74
2022/05/11 08:37:47;;;;;;;18.23;2.10;;;28.60;37.00;;;;;;4890004;29;20036;-75
2022/05/11 08:40:28;;;;;;;9.57;1.38;;;27.40;41.10;;;;;;4890675;29;20040;-75
2022/05/11 08:42:55;;;;;;;11.40;2.05;;;29.10;41.70;;;;;;4897745;29;20043;-75
2022/05/11 08:45:39;;;;;;;7.84;2.09;;;28.60;38.50;;;;;;4498078;29;10001995;-76
2022/05/11 08:48:09;;;;;;;9.60;2.47;;;28.60;38.30;;;;;;4888124;29;20135;-74
2022/05/11 08:50:41;;;;;;;8.27;1.88;;;29.20;40.70;;;;;;4890977;29;20066;-74
2022/05/11 08:53:26;;;;;;;9.65;1.77;;;27.60;39.20;;;;;;4900358;29;20056;-75
2022/05/11 08:55:55;;;;;;;8.43;1.92;;;26.90;42.60;;;;;;4898164;29;20436;-75
2022/05/11 08:58:23;;;;;;;9.85;1.73;;;27.10;44.60;;;;;;4896910;29;20133;-75
2022/05/11 09:00:53;;;;;;;14.23;2.50;;;25.90;41.70;;;;;;4870745;29;20047;-76
2022/05/11 09:03:38;;;;;;;8.32;1.83;;;24.20;46.30;;;;;;4891981;29;20040;-74
2022/05/11 09:06:06;;;;;;;11.65;2.35;;;22.60;52.80;;;;;;4891606;29;20059;-74
2022/05/11 09:08:36;;;;;;;13.43;2.40;;;21.50;55.20;;;;;;4896163;29;20048;-74
2022/05/11 09:11:03;;;;;;;13.50;2.30;;;20.20;57.20;;;;;;4905435;29;20523;-75
2022/05/11 09:13:29;;;;;;;7.78;2.33;;;19.30;61.70;;;;;;4905859;29;20028;-76
2022/05/11 09:16:01;;;;;;;11.88;2.53;;;19.70;63.10;;;;;;4905789;29;20634;-75
2022/05/11 09:18:39;;;;;;;15.23;2.08;;;19.70;61.60;;;;;;4898885;29;20032;-74
2022/05/11 09:21:20;;;;;;;11.52;2.15;;;19.40;62.10;;;;;;4890242;29;20040;-73
2022/05/11 09:24:02;;;;;;;13.52;1.95;;;19.50;63.70;;;;;;4891863;29;20034;-75
2022/05/11 09:26:30;;;;;;;;;;;18.80;63.30;;;;;;4894442;29;20046;-76
2022/05/11 09:29:19;;;;;;;17.02;2.25;;;19.30;66.40;;;;;;4892295;29;19934;-71
2022/05/11 09:31:46;;;;;;;6.50;1.63;;;19.70;62.00;;;;;;4889300;29;20035;-76
2022/05/11 09:34:23;;;;;;;10.68;2.53;;;19.50;64.50;;;;;;4891185;29;20104;-76
2022/05/11 09:36:57;;;;;;;14.52;2.08;;;19.50;64.50;;;;;;4888666;29;20032;-74
2022/05/11 09:39:24;;;;;;;9.70;2.13;;;19.50;62.60;;;;;;4903141;29;20725;-74
2022/05/11 09:41:51;;;;;;;12.57;2.13;;;19.60;63.60;;;;;;4892400;29;20056;-73
2022/05/11 09:44:24;;;;;;;8.32;1.85;;;19.40;62.60;;;;;;4905190;29;20056;-74
2022/05/11 09:46:50;;;;;;;12.55;2.60;;;19.10;65.30;;;;;;4905707;29;20124;-75
2022/05/11 09:49:19;;;;;;;13.32;1.85;;;19.00;63.30;;;;;;4903779;29;20044;-76
2022/05/11 09:51:51;;;;;;;11.50;2.20;;;19.10;65.00;;;;;;4907043;29;20245;-75
2022/05/11 09:54:38;;;;;;;;;;;19.10;63.10;;;;;;4904767;29;20036;-72
2022/05/11 09:57:09;;;;;;;11.88;2.70;;;19.30;63.20;;;;;;4906415;29;19946;-75
2022/05/11 09:59:37;;;;;;;;;;;19.00;63.50;;;;;;4905460;29;20144;-75
2022/05/11 10:02:15;;;;;;;13.90;2.90;;;19.20;67.60;;;;;;4904643;29;20457;-75
2022/05/11 10:04:55;;;;;;;16.88;3.92;;;19.00;64.90;;;;;;4904575;29;20229;-74
2022/05/11 10:07:22;;;;;;;10.40;2.00;;;19.00;66.70;;;;;;4904110;29;20040;-73
2022/05/11 10:10:01;;;;;;;12.55;2.03;;;19.00;63.20;;;;;;4906529;29;20159;-74
2022/05/11 10:12:31;;;;;;;9.57;1.80;;;19.10;66.40;;;;;;4901250;29;20039;-74
2022/05/11 10:24:18;;;;;;;7.90;2.30;;;19.40;67.50;;;;;;4906165;29;20601;-75
2022/05/11 10:27:17;;;;;;;13.52;2.83;;;19.50;65.00;;;;;;4886688;29;20063;-74
2022/05/11 10:30:04;;;;;;;10.35;2.45;;;19.40;67.40;;;;;;4904567;29;20047;-72
2022/05/11 10:33:02;;;;;;;13.63;1.88;;;19.30;66.30;;;;;;4907640;29;20051;-72
2022/05/11 10:35:36;;;;;;;11.38;2.20;;;18.80;68.50;;;;;;4895921;29;20384;-71
2022/05/11 10:38:08;;;;;;;13.63;2.28;;;18.50;67.30;;;;;;4905924;29;20495;-73
2022/05/11 10:40:54;;;;;;;13.77;2.22;;;18.50;69.10;;;;;;4894969;29;20025;-71
2022/05/11 10:43:48;;;;;;;13.10;2.53;;;18.40;69.80;;;;;;4896253;29;20784;-72
2022/05/11 10:46:48;;;;;;;14.77;3.05;;;18.40;68.50;;;;;;4900733;29;20059;-72
2022/05/11 10:49:38;;;;;;;15.10;3.10;;;18.40;68.60;;;;;;3882700;29;10001154;-73
2022/05/11 10:52:06;;;;;;;11.02;2.65;;;18.10;70.80;;;;;;4911232;29;20106;-71
2022/05/11 10:54:46;;;;;;;10.68;2.10;;;17.80;71.40;;;;;;4924237;29;20042;-72
2022/05/11 10:57:29;;;;;;;13.32;3.10;;;17.70;72.00;;;;;;4907635;29;20043;-72
2022/05/11 11:00:07;;;;;;;11.10;2.25;;;17.40;73.20;;;;;;4905264;29;20036;-73
2022/05/11 11:02:41;;;;;;;17.23;3.10;;;17.50;71.70;;;;;;4903007;29;20563;-75
2022/05/11 11:05:31;;;;;;;12.60;2.50;;;17.80;72.20;;;;;;4905073;29;20047;-75
2022/05/11 11:08:27;;;;;;;13.40;2.45;;;17.90;71.40;;;;;;4905129;29;20052;-74
2022/05/11 11:11:01;;;;;;;12.52;2.38;;;17.70;71.60;;;;;;4903627;29;20064;-73
2022/05/11 11:13:38;;;;;;;16.50;3.00;;;18.10;70.90;;;;;;4905387;29;20047;-74
2022/05/11 11:16:05;;;;;;;14.95;2.67;;;18.40;69.80;;;;;;4905968;29;20047;-74
2022/05/11 11:18:36;;;;;;;14.50;3.05;;;18.20;69.50;;;;;;4902580;29;20510;-75
2022/05/11 11:21:02;;;;;;;11.93;2.17;;;18.10;73.20;;;;;;4897396;29;20047;-74
2022/05/11 11:23:31;;;;;;;14.77;2.92;;;18.10;71.50;;;;;;4895496;29;20128;-74
2022/05/11 11:26:09;;;;;;;16.67;3.63;;;18.40;71.00;;;;;;4893927;29;21577;-76
2022/05/11 11:28:41;;;;;;;14.68;3.00;;;18.60;70.50;;;;;;4893890;29;20040;-76
2022/05/11 11:31:09;;;;;;;24.02;3.05;;;18.60;70.90;;;;;;4895510;29;20256;-75
2022/05/11 11:33:39;;;;;;;13.52;3.53;;;18.80;70.00;;;;;;4896955;29;20036;-73
2022/05/11 11:36:13;;;;;;;13.93;2.70;;;19.00;70.70;;;;;;4897579;29;20066;-76
2022/05/11 11:38:39;;;;;;;11.70;2.13;;;19.50;68.30;;;;;;4897960;29;20677;-72
2022/05/11 11:41:20;;;;;;;14.90;3.35;;;19.90;66.80;;;;;;4902242;29;20121;-75
2022/05/11 11:44:03;;;;;;;14.43;2.70;;;19.70;64.20;;;;;;4904501;29;20091;-77
2022/05/11 11:46:43;;;;;;;13.75;2.33;;;19.30;68.30;;;;;;4905060;29;20488;-74
2022/05/11 11:49:18;;;;;;;9.37;2.00;;;19.50;70.40;;;;;;4903766;29;20123;-73
2022/05/11 11:52:05;;;;;;;14.27;2.90;;;19.60;64.90;;;;;;4904812;29;20111;-76
2022/05/11 11:54:37;;;;;;;11.27;2.10;;;19.00;66.30;;;;;;4894725;29;20093;-73
2022/05/11 11:57:25;;;;;;;11.80;2.45;;;19.00;70.00;;;;;;4904461;29;20040;-77
2022/05/11 11:59:59;;;;;;;12.48;2.30;;;18.90;71.20;;;;;;4902619;29;20059;-76
2022/05/11 12:02:37;;;;;;;12.18;2.83;;;18.80;68.70;;;;;;4904058;29;20221;-77
2022/05/11 12:05:23;;;;;;;11.40;2.13;;;18.90;67.60;;;;;;4898073;29;20403;-75
2022/05/11 12:16:26;;;;;;;11.98;3.35;;;19.70;68.50;;;;;;4900743;29;20070;-76
2022/05/11 12:18:52;;;;;;;11.20;2.88;;;19.90;65.30;;;;;;4900566;29;20047;-76
2022/05/11 12:21:34;;;;;;;13.68;2.30;;;20.30;65.60;;;;;;4899614;29;20024;-75
2022/05/11 12:24:05;;;;;;;12.80;3.55;;;19.80;63.50;;;;;;4893879;29;20031;-76
2022/05/11 12:26:37;;;;;;;11.82;2.67;;;19.50;65.60;;;;;;4893671;29;20032;-73
2022/05/11 12:32:01;;;;;;;15.02;2.63;;;19.40;64.40;;;;;;4897691;29;20119;-75
2022/05/11 12:34:30;;;;;;;9.13;2.22;;;18.30;67.40;;;;;;4888461;29;20044;-77
2022/05/11 12:36:56;;;;;;;10.27;2.60;;;17.70;70.10;;;;;;4900131;29;20046;-75
2022/05/11 12:39:30;;;;;;;11.27;2.90;;;17.50;71.20;;;;;;4901656;29;20495;-74
2022/05/11 12:41:56;;;;;;;10.60;3.15;;;17.70;73.60;;;;;;4904436;29;20046;-76
2022/05/11 12:44:29;;;;;;;16.63;3.63;;;17.60;71.40;;;;;;4897427;29;20024;-74
2022/05/11 12:46:56;;;;;;;12.93;2.38;;;17.50;72.30;;;;;;4898174;29;20161;-74
2022/05/11 12:49:22;;;;;;;17.50;2.63;;;17.70;73.50;;;;;;4898119;29;20040;-75
2022/05/11 12:51:56;;;;;;;14.75;3.45;;;17.90;71.50;;;;;;4901488;29;20098;-73
2022/05/11 12:54:24;;;;;;;13.52;2.78;;;18.00;71.80;;;;;;4892441;29;20040;-74
2022/05/11 12:57:02;;;;;;;10.82;2.33;;;18.00;70.40;;;;;;4894425;29;20491;-75
2022/05/11 12:59:29;;;;;;;10.93;2.20;;;18.20;72.10;;;;;;4896661;29;20040;-74
2022/05/11 13:02:17;;;;;;;14.32;2.65;;;18.20;70.70;;;;;;4896545;29;20529;-76
2022/05/11 13:04:56;;;;;;;14.82;2.45;;;17.70;72.30;;;;;;4893205;29;20056;-75
2022/05/11 13:07:30;;;;;;;11.18;2.22;;;17.30;72.80;;;;;;4899248;29;20059;-74
2022/05/11 13:09:59;;;;;;;13.60;2.22;;;17.10;73.80;;;;;;4893767;29;20040;-73
2022/05/11 13:12:26;;;;;;;11.45;2.75;;;17.10;74.30;;;;;;4890412;29;20547;-73
2022/05/11 13:14:58;;;;;;;11.38;2.85;;;17.10;75.00;;;;;;4892987;29;20036;-73
2022/05/11 13:17:33;;;;;;;12.40;3.03;;;17.10;76.00;;;;;;4896377;29;20036;-72
2022/05/11 13:20:06;;;;;;;12.55;2.33;;;17.10;74.60;;;;;;4893744;29;20044;-72
2022/05/11 13:22:32;;;;;;;7.10;2.30;;;16.80;74.90;;;;;;4895952;29;20118;-74
2022/05/11 13:25:05;;;;;;;11.05;2.53;;;16.70;77.00;;;;;;4896737;29;20059;-74
2022/05/11 13:27:48;;;;;;;11.15;3.00;;;16.80;78.10;;;;;;4894700;29;20036;-75
2022/05/11 13:30:27;;;;;;;8.68;2.05;;;16.80;81.40;;;;;;4898759;29;20048;-75
2022/05/11 13:32:56;;;;;;;9.50;2.83;;;16.40;83.00;;;;;;4892635;29;20056;-77
2022/05/11 13:35:37;;;;;;;11.18;3.45;;;16.00;87.80;;;;;;4896657;29;20032;-78